createdAt,value
2024-01-01T00:01:51.954Z,101726.19
2024-01-01T00:04:04.778Z,101729.30
2024-01-01T00:06:17.166Z,101727.21
2024-01-01T00:08:29.851Z,101729.11
2024-01-01T00:10:42.871Z,101731.62
2024-01-01T00:12:55.372Z,101732.23
2024-01-01T00:15:08.204Z,101734.21
2024-01-01T00:17:20.834Z,101735.31
2024-01-01T00:19:33.285Z,101737.08
2024-01-01T00:21:46.254Z,101736.75
2024-01-01T00:23:58.809Z,101737.52
2024-01-01T00:26:11.926Z,101739.37
2024-01-01T00:28:24.821Z,101735.96
2024-01-01T00:30:37.751Z,101732.73
2024-01-01T00:32:50.265Z,101729.61
2024-01-01T00:35:03.043Z,101729.46
2024-01-01T00:37:15.380Z,101728.85
2024-01-01T00:39:27.921Z,101727.17
2024-01-01T00:41:40.819Z,101729.09
2024-01-01T00:43:53.543Z,101727.30
2024-01-01T00:46:05.956Z,101727.45
2024-01-01T00:48:20.097Z,101726.84
2024-01-01T00:50:32.687Z,101726.62
2024-01-01T00:52:45.033Z,101729.16
2024-01-01T00:54:57.707Z,101729.59
2024-01-01T00:57:10.926Z,101728.39
2024-01-01T00:59:24.550Z,101727.30
2024-01-01T01:01:39.317Z,101731.23
2024-01-01T01:03:51.743Z,101730.34
2024-01-01T01:06:11.465Z,101731.94
2024-01-01T01:08:31.262Z,101731.42
2024-01-01T01:10:43.944Z,101731.89
2024-01-01T01:12:57.522Z,101736.21
2024-01-01T01:15:10.778Z,101741.33
2024-01-01T01:17:23.087Z,101749.45
2024-01-01T01:19:35.429Z,101748.13
2024-01-01T01:21:48.250Z,101746.62
2024-01-01T01:24:00.700Z,101745.91
2024-01-01T01:26:13.215Z,101748.06
2024-01-01T01:28:30.255Z,101743.77
2024-01-01T01:30:43.509Z,101749.21
2024-01-01T01:32:56.044Z,101750.06
2024-01-01T01:35:08.882Z,101752.15
2024-01-01T01:37:22.258Z,101748.50
2024-01-01T01:39:35.254Z,101754.61
2024-01-01T01:41:48.731Z,101756.63
2024-01-01T01:44:03.113Z,101756.96
2024-01-01T01:46:17.765Z,101751.41
2024-01-01T01:48:31.199Z,101746.79
2024-01-01T01:50:44.404Z,101749.43
2024-01-01T01:52:57.608Z,101748.44
2024-01-01T01:55:12.665Z,101751.58
2024-01-01T01:57:26.621Z,101759.00
2024-01-01T01:59:39.665Z,101766.08
2024-01-01T02:01:52.393Z,101766.14
2024-01-01T02:04:04.683Z,101763.64
2024-01-01T02:06:17.259Z,101762.57
2024-01-01T02:08:30.639Z,101764.70
2024-01-01T02:10:43.848Z,101766.13
2024-01-01T02:12:57.110Z,101770.00
2024-01-01T02:15:10.658Z,101771.12
2024-01-01T02:17:23.111Z,101776.58
2024-01-01T02:19:37.382Z,101777.66
2024-01-01T02:21:53.424Z,101780.16
2024-01-01T02:24:06.425Z,101782.52
2024-01-01T02:26:21.474Z,101792.95
2024-01-01T02:28:34.101Z,101795.96
2024-01-01T02:30:46.431Z,101797.48
2024-01-01T02:32:58.945Z,101802.36
2024-01-01T02:35:12.759Z,101803.93
2024-01-01T02:37:25.101Z,101806.48
2024-01-01T02:39:37.816Z,101809.46
2024-01-01T02:41:50.271Z,101808.31
2024-01-01T02:44:02.838Z,101812.45
2024-01-01T02:46:15.766Z,101814.40
2024-01-01T02:48:28.263Z,101809.20
2024-01-01T02:50:41.072Z,101809.48
2024-01-01T02:52:53.453Z,101807.27
2024-01-01T02:55:06.042Z,101800.59
2024-01-01T02:57:18.560Z,101796.36
2024-01-01T02:59:31.277Z,101794.59
2024-01-01T03:01:43.775Z,101792.32
2024-01-01T03:03:56.332Z,101794.56
2024-01-01T03:06:09.805Z,101794.20
2024-01-01T03:08:22.229Z,101790.05
2024-01-01T03:10:34.758Z,101792.70
2024-01-01T03:12:47.376Z,101798.64
2024-01-01T03:14:59.774Z,101803.81
2024-01-01T03:17:12.774Z,101799.94
2024-01-01T03:19:25.266Z,101799.54
2024-01-01T03:21:37.861Z,101796.80
2024-01-01T03:23:50.677Z,101800.95
2024-01-01T03:26:03.635Z,101801.79
2024-01-01T03:28:16.490Z,101810.63
2024-01-01T03:30:29.145Z,101810.98
2024-01-01T03:32:42.569Z,101812.55
2024-01-01T03:34:55.441Z,101813.40
2024-01-01T03:37:08.147Z,101816.94
2024-01-01T03:39:20.530Z,101820.75
2024-01-01T03:41:32.888Z,101816.61
2024-01-01T03:43:45.092Z,101822.45
2024-01-01T03:45:57.576Z,101821.97
2024-01-01T03:48:12.935Z,101816.69
2024-01-01T03:50:26.169Z,101822.56
2024-01-01T03:52:38.688Z,101817.82
2024-01-01T03:54:51.421Z,101819.08
2024-01-01T03:57:03.752Z,101816.21
2024-01-01T03:59:16.383Z,101810.13
2024-01-01T04:01:29.268Z,101806.32
2024-01-01T04:03:41.564Z,101806.00
2024-01-01T04:05:53.970Z,101805.41
2024-01-01T04:08:06.515Z,101801.75
2024-01-01T04:10:19.799Z,101806.08
2024-01-01T04:12:32.103Z,101801.81
2024-01-01T04:14:44.620Z,101805.95
2024-01-01T04:16:57.168Z,101800.23
2024-01-01T04:19:09.749Z,101807.43
2024-01-01T04:21:22.213Z,101804.09
2024-01-01T04:23:34.406Z,101801.70
2024-01-01T04:25:46.660Z,101797.94
2024-01-01T04:27:59.267Z,101799.30
2024-01-01T04:30:15.954Z,101796.76
2024-01-01T04:32:28.846Z,101794.23
2024-01-01T04:34:41.528Z,101798.45
2024-01-01T04:36:53.961Z,101795.53
2024-01-01T04:39:07.216Z,101796.54
2024-01-01T04:41:19.958Z,101789.96
2024-01-01T04:43:32.962Z,101786.48
2024-01-01T04:45:45.649Z,101791.27
2024-01-01T04:47:58.115Z,101791.34
2024-01-01T04:50:13.346Z,101794.23
2024-01-01T04:52:26.094Z,101794.94
2024-01-01T04:54:38.808Z,101800.02
2024-01-01T04:56:51.081Z,101803.34
2024-01-01T04:59:03.847Z,101801.05
2024-01-01T05:01:16.265Z,101798.73
2024-01-01T05:03:28.942Z,101798.42
2024-01-01T05:05:41.742Z,101798.10
2024-01-01T05:07:55.524Z,101801.91
2024-01-01T05:10:08.386Z,101800.59
2024-01-01T05:12:21.319Z,101807.86
2024-01-01T05:14:33.808Z,101804.93
2024-01-01T05:16:51.089Z,101808.85
2024-01-01T05:19:03.782Z,101811.10
2024-01-01T05:21:16.785Z,101813.23
2024-01-01T05:23:29.468Z,101818.80
2024-01-01T05:25:42.168Z,101815.79
2024-01-01T05:27:54.836Z,101808.06
2024-01-01T05:30:08.723Z,101814.09
2024-01-01T05:32:21.988Z,101807.59
2024-01-01T05:34:34.713Z,101809.59
2024-01-01T05:36:47.071Z,101812.04
2024-01-01T05:38:59.954Z,101814.81
2024-01-01T05:41:13.781Z,101816.30
2024-01-01T05:43:26.793Z,101820.66
2024-01-01T05:45:39.121Z,101816.78
2024-01-01T05:47:53.327Z,101810.46
2024-01-01T05:50:07.148Z,101809.85
2024-01-01T05:52:23.926Z,101802.53
2024-01-01T05:54:36.398Z,101812.39
2024-01-01T05:56:48.898Z,101812.95
2024-01-01T05:59:01.535Z,101817.52
2024-01-01T06:01:14.657Z,101821.81
2024-01-01T06:03:27.926Z,101820.02
2024-01-01T06:05:43.074Z,101821.49
2024-01-01T06:07:57.117Z,101823.41
2024-01-01T06:10:09.986Z,101825.86
2024-01-01T06:12:22.353Z,101825.00
2024-01-01T06:14:34.934Z,101823.42
2024-01-01T06:16:47.366Z,101821.52
2024-01-01T06:18:59.801Z,101823.14
2024-01-01T06:21:12.432Z,101824.64
2024-01-01T06:23:24.997Z,101825.60
2024-01-01T06:25:37.636Z,101829.66
2024-01-01T06:27:50.222Z,101826.23
2024-01-01T06:30:02.780Z,101826.20
2024-01-01T06:32:15.824Z,101826.75
2024-01-01T06:34:28.494Z,101821.95
2024-01-01T06:36:41.371Z,101819.66
2024-01-01T06:38:53.839Z,101825.27
2024-01-01T06:41:06.757Z,101824.18
2024-01-01T06:43:19.502Z,101826.38
2024-01-01T06:45:31.985Z,101828.53
2024-01-01T06:47:44.640Z,101828.47
2024-01-01T06:49:57.281Z,101833.11
2024-01-01T06:52:10.317Z,101831.90
2024-01-01T06:54:24.079Z,101830.84
2024-01-01T06:56:37.297Z,101832.44
2024-01-01T06:58:49.786Z,101829.18
2024-01-01T07:01:03.032Z,101826.38
2024-01-01T07:03:16.276Z,101822.32
2024-01-01T07:05:31.538Z,101819.90
2024-01-01T07:07:44.364Z,101819.13
2024-01-01T07:09:57.578Z,101820.99
2024-01-01T07:12:25.337Z,101821.22
2024-01-01T07:14:37.756Z,101823.71
2024-01-01T07:16:50.081Z,101825.91
2024-01-01T07:19:02.505Z,101828.20
2024-01-01T07:21:15.343Z,101827.13
2024-01-01T07:23:27.697Z,101825.47
2024-01-01T07:25:40.553Z,101829.24
2024-01-01T07:27:52.918Z,101829.28
2024-01-01T07:30:06.388Z,101828.30
2024-01-01T07:32:19.905Z,101824.31
2024-01-01T07:34:32.470Z,101818.59
2024-01-01T07:36:46.245Z,101816.73
2024-01-01T07:38:58.774Z,101814.58
2024-01-01T07:41:11.459Z,101814.11
2024-01-01T07:43:24.905Z,101814.05
2024-01-01T07:45:37.548Z,101813.95
2024-01-01T07:47:51.113Z,101805.14
2024-01-01T07:50:03.571Z,101805.67
2024-01-01T07:52:16.629Z,101805.48
2024-01-01T07:54:29.216Z,101805.33
2024-01-01T07:56:45.934Z,101808.02
2024-01-01T07:58:58.335Z,101808.34
2024-01-01T08:01:10.884Z,101813.40
2024-01-01T08:03:23.586Z,101815.61
2024-01-01T08:05:36.135Z,101817.34
2024-01-01T08:07:50.127Z,101817.95
2024-01-01T08:10:03.267Z,101817.11
2024-01-01T08:12:15.800Z,101811.48
2024-01-01T08:14:28.324Z,101810.46
2024-01-01T08:16:40.611Z,101815.55
2024-01-01T08:18:55.233Z,101821.42
2024-01-01T08:21:07.797Z,101819.42
2024-01-01T08:23:20.333Z,101818.67
2024-01-01T08:25:32.731Z,101823.00
2024-01-01T08:27:45.878Z,101823.78
2024-01-01T08:29:58.167Z,101823.04
2024-01-01T08:32:11.567Z,101826.38
2024-01-01T08:34:24.082Z,101833.48
2024-01-01T08:36:36.286Z,101840.41
2024-01-01T08:38:48.720Z,101842.70
2024-01-01T08:41:01.204Z,101845.83
2024-01-01T08:43:13.571Z,101847.45
2024-01-01T08:45:25.893Z,101849.16
2024-01-01T08:47:40.549Z,101847.03
2024-01-01T08:49:54.091Z,101845.51
2024-01-01T08:52:06.508Z,101848.03
2024-01-01T08:54:21.117Z,101844.73
2024-01-01T08:56:33.489Z,101843.48
2024-01-01T08:58:46.361Z,101838.33
2024-01-01T09:00:58.946Z,101839.85
2024-01-01T09:03:11.664Z,101835.13
2024-01-01T09:05:24.522Z,101837.50
2024-01-01T09:07:37.405Z,101839.85
2024-01-01T09:09:49.799Z,101849.58
2024-01-01T09:12:02.237Z,101849.48
2024-01-01T09:14:14.666Z,101846.86
2024-01-01T09:16:31.885Z,101851.60
2024-01-01T09:18:44.377Z,101847.95
2024-01-01T09:20:59.831Z,101850.61
2024-01-01T09:23:13.729Z,101854.27
2024-01-01T09:25:26.150Z,101855.44
2024-01-01T09:27:38.375Z,101854.77
2024-01-01T09:29:51.216Z,101862.27
2024-01-01T09:32:05.068Z,101858.34
2024-01-01T09:34:17.825Z,101861.70
2024-01-01T09:36:31.404Z,101859.13
2024-01-01T09:38:44.170Z,101863.96
2024-01-01T09:40:59.460Z,101867.95
2024-01-01T09:43:11.919Z,101867.40
2024-01-01T09:45:24.547Z,101865.70
2024-01-01T09:47:37.800Z,101868.53
2024-01-01T09:49:50.625Z,101872.34
2024-01-01T09:52:03.499Z,101873.36
2024-01-01T09:54:15.902Z,101867.71
2024-01-01T09:56:28.332Z,101866.27
2024-01-01T09:58:48.869Z,101866.38
2024-01-01T10:01:15.125Z,101864.94
2024-01-01T10:03:27.983Z,101863.73
2024-01-01T10:05:41.151Z,101865.63
2024-01-01T10:07:53.556Z,101868.79
2024-01-01T10:10:05.842Z,101868.10
2024-01-01T10:12:20.206Z,101872.26
2024-01-01T10:14:32.669Z,101874.15
2024-01-01T10:16:45.909Z,101875.78
2024-01-01T10:19:02.035Z,101875.84
2024-01-01T10:21:20.289Z,101877.49
2024-01-01T10:23:35.840Z,101879.24
2024-01-01T10:25:52.005Z,101877.90
2024-01-01T10:28:05.949Z,101874.92
2024-01-01T10:30:19.592Z,101876.79
2024-01-01T10:32:34.233Z,101871.55
2024-01-01T10:34:48.486Z,101870.94
2024-01-01T10:37:01.206Z,101867.23
2024-01-01T10:39:15.610Z,101868.88
2024-01-01T10:41:27.976Z,101876.72
2024-01-01T10:43:40.830Z,101879.86
2024-01-01T10:45:55.305Z,101873.95
2024-01-01T10:48:10.275Z,101872.99
2024-01-01T10:50:31.712Z,101878.98
2024-01-01T10:52:59.534Z,101878.55
2024-01-01T10:55:25.122Z,101877.35
2024-01-01T10:57:56.263Z,101869.14
2024-01-01T11:00:20.754Z,101862.00
2024-01-01T11:02:34.266Z,101857.07
2024-01-01T11:04:50.088Z,101854.01
2024-01-01T11:07:04.416Z,101849.68
2024-01-01T11:09:52.386Z,101851.27
2024-01-01T11:12:07.858Z,101853.13
2024-01-01T11:14:30.399Z,101851.30
2024-01-01T11:17:02.396Z,101860.80
2024-01-01T11:19:36.523Z,101862.69
2024-01-01T11:21:49.083Z,101861.66
2024-01-01T11:24:20.771Z,101858.17
2024-01-01T11:26:37.586Z,101856.38
2024-01-01T11:28:50.052Z,101856.70
2024-01-01T11:31:03.708Z,101860.84
2024-01-01T11:33:16.309Z,101864.06
2024-01-01T11:35:29.284Z,101865.20
2024-01-01T11:37:43.753Z,101859.05
2024-01-01T11:40:06.710Z,101852.27
2024-01-01T11:42:24.785Z,101848.55
2024-01-01T11:44:37.028Z,101848.48
2024-01-01T11:47:14.650Z,101846.53
2024-01-01T11:49:33.224Z,101846.23
2024-01-01T11:51:59.875Z,101845.50
2024-01-01T11:54:16.648Z,101840.29
2024-01-01T11:56:29.215Z,101834.09
2024-01-01T11:58:53.108Z,101831.09
2024-01-01T12:01:06.281Z,101827.77
2024-01-01T12:03:19.075Z,101838.13
2024-01-01T12:05:35.425Z,101835.70
2024-01-01T12:07:51.126Z,101840.46
2024-01-01T12:10:19.445Z,101837.41
2024-01-01T12:12:43.132Z,101834.25
2024-01-01T12:15:15.822Z,101828.02
2024-01-01T12:17:28.654Z,101832.21
2024-01-01T12:19:41.468Z,101836.52
2024-01-01T12:22:24.237Z,101832.11
2024-01-01T12:24:36.773Z,101834.66
2024-01-01T12:26:50.481Z,101833.27
2024-01-01T12:29:22.758Z,101832.54
2024-01-01T12:31:56.586Z,101829.99
2024-01-01T12:34:23.886Z,101826.17
2024-01-01T12:36:36.371Z,101829.36
2024-01-01T12:38:52.052Z,101829.70
2024-01-01T12:41:04.623Z,101828.59
2024-01-01T12:43:31.214Z,101826.48
2024-01-01T12:45:44.099Z,101833.05
2024-01-01T12:47:59.740Z,101837.09
2024-01-01T12:50:13.483Z,101838.32
2024-01-01T12:52:26.120Z,101841.54
2024-01-01T12:54:38.763Z,101846.02
2024-01-01T12:57:01.925Z,101842.87
2024-01-01T12:59:23.232Z,101839.81
2024-01-01T13:01:36.217Z,101844.84
2024-01-01T13:04:08.734Z,101847.34
2024-01-01T13:06:40.719Z,101846.56
2024-01-01T13:09:02.558Z,101842.17
2024-01-01T13:11:15.902Z,101837.77
2024-01-01T13:13:28.676Z,101836.51
2024-01-01T13:15:42.512Z,101834.55
2024-01-01T13:18:06.494Z,101835.79
2024-01-01T13:20:32.092Z,101835.30
2024-01-01T13:22:54.398Z,101837.83
2024-01-01T13:25:12.870Z,101841.83
2024-01-01T13:27:28.376Z,101841.58
2024-01-01T13:29:43.969Z,101842.06
2024-01-01T13:31:59.312Z,101838.95
2024-01-01T13:34:12.069Z,101840.88
2024-01-01T13:36:25.232Z,101843.36
2024-01-01T13:38:44.355Z,101849.94
2024-01-01T13:41:17.780Z,101854.45
2024-01-01T13:43:33.371Z,101861.03
2024-01-01T13:45:46.074Z,101864.10
2024-01-01T13:47:58.921Z,101865.80
2024-01-01T13:50:12.710Z,101868.14
2024-01-01T13:52:46.424Z,101864.90
2024-01-01T13:54:59.473Z,101867.55
2024-01-01T13:57:12.402Z,101871.53
2024-01-01T13:59:34.394Z,101873.34
2024-01-01T14:01:47.154Z,101873.86
2024-01-01T14:04:12.405Z,101873.30
2024-01-01T14:06:28.452Z,101867.52
2024-01-01T14:08:43.955Z,101871.41
2024-01-01T14:11:09.354Z,101865.14
2024-01-01T14:13:31.627Z,101862.73
2024-01-01T14:16:04.675Z,101865.26
2024-01-01T14:18:20.531Z,101862.77
2024-01-01T14:20:33.505Z,101866.95
2024-01-01T14:22:57.274Z,101858.88
2024-01-01T14:25:11.592Z,101859.55
2024-01-01T14:27:45.686Z,101862.77
2024-01-01T14:29:58.119Z,101862.94
2024-01-01T14:32:21.753Z,101863.32
2024-01-01T14:34:45.213Z,101862.02
2024-01-01T14:37:16.734Z,101860.93
2024-01-01T14:39:38.725Z,101855.41
2024-01-01T14:41:51.306Z,101854.70
2024-01-01T14:44:21.449Z,101852.26
2024-01-01T14:46:34.276Z,101851.33
2024-01-01T14:48:56.911Z,101850.08
2024-01-01T14:51:11.274Z,101843.84
2024-01-01T14:53:27.011Z,101839.33
2024-01-01T14:55:42.869Z,101850.07
2024-01-01T14:57:58.787Z,101854.41
2024-01-01T15:00:13.094Z,101853.77
2024-01-01T15:02:29.611Z,101851.48
2024-01-01T15:04:47.515Z,101848.40
2024-01-01T15:07:05.747Z,101843.85
2024-01-01T15:09:18.281Z,101846.11
2024-01-01T15:11:31.636Z,101842.39
2024-01-01T15:13:44.397Z,101840.19
2024-01-01T15:16:14.207Z,101833.85
2024-01-01T15:18:29.792Z,101833.77
2024-01-01T15:20:42.447Z,101827.30
2024-01-01T15:22:58.786Z,101826.17
2024-01-01T15:25:14.862Z,101823.04
2024-01-01T15:27:27.371Z,101822.37
2024-01-01T15:29:42.585Z,101822.33
2024-01-01T15:31:55.671Z,101830.36
2024-01-01T15:34:28.436Z,101831.61
2024-01-01T15:36:50.253Z,101835.83
2024-01-01T15:39:04.188Z,101833.33
2024-01-01T15:41:16.727Z,101835.72
2024-01-01T15:43:29.916Z,101837.94
2024-01-01T15:45:42.562Z,101843.10
2024-01-01T15:48:17.106Z,101846.58
2024-01-01T15:50:30.232Z,101844.05
2024-01-01T15:52:49.000Z,101851.91
2024-01-01T15:55:01.673Z,101853.34
2024-01-01T15:57:21.301Z,101855.35
2024-01-01T15:59:44.136Z,101856.39
2024-01-01T16:02:10.010Z,101857.85
2024-01-01T16:04:22.787Z,101856.06
2024-01-01T16:06:55.355Z,101861.27
2024-01-01T16:09:11.256Z,101857.34
2024-01-01T16:11:26.866Z,101862.25
2024-01-01T16:13:43.371Z,101866.42
2024-01-01T16:15:59.147Z,101868.00
2024-01-01T16:18:31.917Z,101866.33
2024-01-01T16:20:44.704Z,101867.23
2024-01-01T16:22:57.545Z,101871.04
2024-01-01T16:25:15.844Z,101872.73
2024-01-01T16:27:31.971Z,101875.17
2024-01-01T16:29:44.554Z,101873.89
2024-01-01T16:32:07.449Z,101879.02
2024-01-01T16:34:30.131Z,101880.40
2024-01-01T16:36:44.749Z,101886.02
2024-01-01T16:39:18.694Z,101885.83
2024-01-01T16:41:33.399Z,101889.08
2024-01-01T16:43:46.109Z,101893.39
2024-01-01T16:46:10.250Z,101897.11
2024-01-01T16:48:33.945Z,101907.09
2024-01-01T16:50:49.696Z,101914.17
2024-01-01T16:53:02.466Z,101910.55
2024-01-01T16:55:16.520Z,101912.85
2024-01-01T16:57:33.197Z,101915.48
2024-01-01T16:59:48.739Z,101922.02
2024-01-01T17:02:12.732Z,101923.45
2024-01-01T17:04:29.439Z,101923.38
2024-01-01T17:06:42.368Z,101932.59
2024-01-01T17:09:15.476Z,101937.71
2024-01-01T17:11:28.801Z,101939.92
2024-01-01T17:13:44.128Z,101947.73
2024-01-01T17:15:57.619Z,101948.29
2024-01-01T17:18:20.884Z,101948.98
2024-01-01T17:20:43.717Z,101950.44
2024-01-01T17:23:03.186Z,101949.55
2024-01-01T17:25:21.513Z,101953.55
2024-01-01T17:27:37.623Z,101954.36
2024-01-01T17:29:50.104Z,101954.20
2024-01-01T17:32:02.791Z,101957.14
2024-01-01T17:34:15.650Z,101961.05
2024-01-01T17:36:31.804Z,101967.20
2024-01-01T17:38:44.886Z,101968.23
2024-01-01T17:40:58.680Z,101971.24
2024-01-01T17:43:21.570Z,101971.86
2024-01-01T17:45:45.529Z,101971.83
2024-01-01T17:47:58.177Z,101969.95
2024-01-01T17:50:12.446Z,101968.41
2024-01-01T17:52:28.286Z,101973.59
2024-01-01T17:54:40.624Z,101981.05
2024-01-01T17:56:53.397Z,101982.64
2024-01-01T17:59:13.897Z,101984.23
2024-01-01T18:01:26.896Z,101986.16
2024-01-01T18:03:40.547Z,101989.35
2024-01-01T18:05:53.319Z,101984.80
2024-01-01T18:08:16.517Z,101985.27
2024-01-01T18:10:30.232Z,101984.40
2024-01-01T18:12:43.201Z,101985.04
2024-01-01T18:14:56.607Z,101989.73
2024-01-01T18:17:09.677Z,101995.99
2024-01-01T18:19:22.273Z,101996.27
2024-01-01T18:21:34.642Z,101998.70
2024-01-01T18:23:47.920Z,102006.32
2024-01-01T18:26:03.830Z,102006.48
2024-01-01T18:28:36.376Z,102001.89
2024-01-01T18:30:59.498Z,101997.23
2024-01-01T18:33:12.636Z,101986.88
2024-01-01T18:35:26.011Z,101986.48
2024-01-01T18:37:38.866Z,101985.55
2024-01-01T18:39:51.405Z,101981.58
2024-01-01T18:42:13.501Z,101976.00
2024-01-01T18:44:26.091Z,101974.70
2024-01-01T18:46:38.753Z,101975.84
2024-01-01T18:48:52.064Z,101976.46
2024-01-01T18:51:05.022Z,101975.63
2024-01-01T18:53:17.839Z,101975.00
2024-01-01T18:55:30.598Z,101970.23
2024-01-01T18:57:46.232Z,101966.17
2024-01-01T19:00:00.208Z,101967.13
2024-01-01T19:02:12.983Z,101969.26
2024-01-01T19:04:25.692Z,101969.88
2024-01-01T19:06:48.753Z,101969.59
2024-01-01T19:09:01.665Z,101961.85
2024-01-01T19:11:14.369Z,101959.70
2024-01-01T19:13:37.591Z,101957.52
2024-01-01T19:15:50.526Z,101951.83
2024-01-01T19:18:03.449Z,101959.45
2024-01-01T19:20:17.735Z,101953.71
2024-01-01T19:22:30.379Z,101953.32
2024-01-01T19:24:43.141Z,101949.10
2024-01-01T19:27:07.105Z,101943.17
2024-01-01T19:29:19.530Z,101941.87
2024-01-01T19:31:32.592Z,101934.00
2024-01-01T19:33:45.130Z,101933.99
2024-01-01T19:36:00.132Z,101929.58
2024-01-01T19:38:16.074Z,101925.00
2024-01-01T19:40:32.477Z,101929.38
2024-01-01T19:42:45.339Z,101927.84
2024-01-01T19:45:04.619Z,101927.53
2024-01-01T19:47:28.273Z,101918.46
2024-01-01T19:49:42.591Z,101916.20
2024-01-01T19:51:55.403Z,101910.19
2024-01-01T19:54:15.490Z,101901.30
2024-01-01T19:56:31.772Z,101903.45
2024-01-01T19:58:48.175Z,101902.41
2024-01-01T20:01:00.888Z,101891.59
2024-01-01T20:03:13.885Z,101890.11
2024-01-01T20:05:30.123Z,101885.56
2024-01-01T20:08:03.284Z,101881.64
2024-01-01T20:10:25.990Z,101880.36
2024-01-01T20:13:01.171Z,101880.41
2024-01-01T20:15:15.542Z,101877.33
2024-01-01T20:17:48.445Z,101877.64
2024-01-01T20:20:01.635Z,101875.70
2024-01-01T20:22:14.649Z,101879.08
2024-01-01T20:24:27.808Z,101877.06
2024-01-01T20:26:51.999Z,101878.20
2024-01-01T20:29:08.648Z,101882.55
2024-01-01T20:31:41.421Z,101883.88
2024-01-01T20:33:54.468Z,101883.20
2024-01-01T20:36:11.403Z,101885.86
2024-01-01T20:38:23.800Z,101880.29
2024-01-01T20:40:47.713Z,101875.36
2024-01-01T20:43:10.660Z,101876.14
2024-01-01T20:45:25.925Z,101872.19
2024-01-01T20:47:41.786Z,101862.84
2024-01-01T20:50:05.270Z,101859.40
2024-01-01T20:52:26.465Z,101854.32
2024-01-01T20:54:51.389Z,101841.41
2024-01-01T20:57:15.074Z,101829.44
2024-01-01T20:59:27.751Z,101830.64
2024-01-01T21:02:00.434Z,101826.90
2024-01-01T21:04:16.339Z,101824.92
2024-01-01T21:06:29.095Z,101827.47
2024-01-01T21:08:42.700Z,101832.23
2024-01-01T21:11:15.445Z,101826.83
2024-01-01T21:13:31.449Z,101819.79
2024-01-01T21:15:44.864Z,101820.61
2024-01-01T21:17:57.769Z,101820.29
2024-01-01T21:20:16.372Z,101816.33
2024-01-01T21:22:49.484Z,101805.34
2024-01-01T21:25:02.334Z,101799.67
2024-01-01T21:27:17.383Z,101799.13
2024-01-01T21:29:33.390Z,101801.14
2024-01-01T21:31:46.306Z,101802.11
2024-01-01T21:33:59.102Z,101804.86
2024-01-01T21:36:18.454Z,101799.94
2024-01-01T21:38:35.266Z,101795.05
2024-01-01T21:40:48.448Z,101790.05
2024-01-01T21:43:12.342Z,101792.45
2024-01-01T21:45:26.362Z,101794.55
2024-01-01T21:47:49.501Z,101803.48
2024-01-01T21:50:15.433Z,101802.25
2024-01-01T21:52:28.038Z,101804.11
2024-01-01T21:54:51.332Z,101810.38
2024-01-01T21:57:03.798Z,101823.34
2024-01-01T21:59:28.337Z,101833.00
2024-01-01T22:01:40.957Z,101836.45
2024-01-01T22:04:04.570Z,101833.52
2024-01-01T22:06:28.605Z,101835.59
2024-01-01T22:08:44.898Z,101830.44
2024-01-01T22:11:00.514Z,101843.84
2024-01-01T22:13:13.305Z,101847.89
2024-01-01T22:15:25.733Z,101855.63
2024-01-01T22:17:41.723Z,101855.12
2024-01-01T22:19:54.283Z,101853.59
2024-01-01T22:22:09.946Z,101845.52
2024-01-01T22:24:22.762Z,101845.17
2024-01-01T22:26:35.447Z,101849.24
2024-01-01T22:28:48.581Z,101845.55
2024-01-01T22:31:04.633Z,101844.35
2024-01-01T22:33:17.503Z,101839.62
2024-01-01T22:35:30.734Z,101836.23
2024-01-01T22:37:44.126Z,101828.77
2024-01-01T22:39:56.646Z,101820.94
2024-01-01T22:42:09.559Z,101808.41
2024-01-01T22:44:28.050Z,101799.92
2024-01-01T22:46:43.545Z,101791.77
2024-01-01T22:48:59.848Z,101793.61
2024-01-01T22:51:15.833Z,101793.27
2024-01-01T22:53:28.654Z,101793.56
2024-01-01T22:55:44.146Z,101801.11
2024-01-01T22:58:17.032Z,101799.40
2024-01-01T23:00:39.651Z,101798.13
2024-01-01T23:02:52.354Z,101799.20
2024-01-01T23:05:05.125Z,101793.10
2024-01-01T23:07:17.681Z,101793.20
2024-01-01T23:09:30.760Z,101783.69
2024-01-01T23:11:43.475Z,101781.85
2024-01-01T23:13:56.215Z,101770.17
2024-01-01T23:16:17.582Z,101771.50
2024-01-01T23:18:30.259Z,101777.80
2024-01-01T23:20:47.000Z,101783.10
2024-01-01T23:22:59.604Z,101779.83
2024-01-01T23:25:12.876Z,101782.77
2024-01-01T23:27:26.262Z,101779.70
2024-01-01T23:29:44.473Z,101786.16
2024-01-01T23:31:57.176Z,101789.77
2024-01-01T23:34:14.706Z,101798.84
2024-01-01T23:36:38.760Z,101799.42
2024-01-01T23:38:51.672Z,101801.18
2024-01-01T23:41:05.237Z,101797.65
2024-01-01T23:43:18.153Z,101801.44
2024-01-01T23:45:30.738Z,101805.23
2024-01-01T23:47:46.365Z,101813.57
2024-01-01T23:50:03.628Z,101815.26
2024-01-01T23:52:22.017Z,101804.06
2024-01-01T23:54:37.857Z,101805.48
2024-01-01T23:56:50.809Z,101806.23
2024-01-01T23:59:03.719Z,101807.77
